createdAt,value
2023-01-22T00:00:06.768Z,11.20
2023-01-22T00:02:36.356Z,9.82
2023-01-22T00:05:03.930Z,10.50
2023-01-22T00:07:31.102Z,10.13
2023-01-22T00:09:59.889Z,9.90
2023-01-22T00:12:27.467Z,10.07
2023-01-22T00:14:54.628Z,10.07
2023-01-22T00:17:21.962Z,10.90
2023-01-22T00:19:49.107Z,10.85
2023-01-22T00:22:16.298Z,11.55
2023-01-22T00:24:43.565Z,11.35
2023-01-22T00:27:10.923Z,11.02
2023-01-22T00:29:38.087Z,10.23
2023-01-22T00:32:05.361Z,10.40
2023-01-22T00:34:32.666Z,11.05
2023-01-22T00:36:59.853Z,10.60
2023-01-22T00:39:27.107Z,10.68
2023-01-22T00:41:54.280Z,10.00
2023-01-22T00:44:21.443Z,11.93
2023-01-22T00:46:49.056Z,11.00
2023-01-22T00:49:16.307Z,10.00
2023-01-22T00:51:43.461Z,11.07
2023-01-22T00:54:10.636Z,10.13
2023-01-22T00:56:37.844Z,11.07
2023-01-22T00:59:10.344Z,10.50
2023-01-22T01:01:40.413Z,11.32
2023-01-22T01:04:07.718Z,10.30
2023-01-22T01:06:34.904Z,10.32
2023-01-22T01:09:02.080Z,11.18
2023-01-22T01:11:30.203Z,10.68
2023-01-22T01:13:57.605Z,10.27
2023-01-22T01:16:31.978Z,10.15
2023-01-22T01:19:03.181Z,11.07
2023-01-22T01:21:31.389Z,9.80
2023-01-22T01:23:59.419Z,10.80
2023-01-22T01:26:26.779Z,9.85
2023-01-22T01:28:54.161Z,10.57
2023-01-22T01:31:22.455Z,10.18
2023-01-22T01:33:50.021Z,10.27
2023-01-22T01:36:30.640Z,10.25
2023-01-22T01:39:06.098Z,10.55
2023-01-22T01:41:33.241Z,10.90
2023-01-22T01:44:07.347Z,11.07
2023-01-22T01:46:37.291Z,10.52
2023-01-22T01:49:04.825Z,10.98
2023-01-22T01:51:36.299Z,10.95
2023-01-22T01:54:04.861Z,10.13
2023-01-22T01:56:34.315Z,11.02
2023-01-22T01:59:03.444Z,10.13
2023-01-22T02:01:31.568Z,10.75
2023-01-22T02:03:58.905Z,10.98
2023-01-22T02:06:26.304Z,10.68
2023-01-22T02:08:56.538Z,11.02
2023-01-22T02:11:23.965Z,11.07
2023-01-22T02:13:53.849Z,11.65
2023-01-22T02:16:21.043Z,12.48
2023-01-22T02:18:48.272Z,11.38
2023-01-22T02:21:28.643Z,10.50
2023-01-22T02:23:55.809Z,11.20
2023-01-22T02:26:23.100Z,10.40
2023-01-22T02:28:50.263Z,10.40
2023-01-22T02:31:17.457Z,11.40
2023-01-22T02:33:44.565Z,11.20
2023-01-22T02:36:11.973Z,11.13
2023-01-22T02:38:39.165Z,10.65
2023-01-22T02:41:06.354Z,11.63
2023-01-22T02:43:33.506Z,11.18
2023-01-22T02:46:01.400Z,11.55
2023-01-22T02:48:28.538Z,11.73
2023-01-22T02:50:55.688Z,11.35
2023-01-22T02:53:22.904Z,11.88
2023-01-22T02:55:50.062Z,10.98
2023-01-22T02:58:17.478Z,11.00
2023-01-22T03:00:44.664Z,10.70
2023-01-22T03:03:15.547Z,10.57
2023-01-22T03:05:49.648Z,11.15
2023-01-22T03:08:17.135Z,11.00
2023-01-22T03:10:44.692Z,11.00
2023-01-22T03:13:31.050Z,11.32
2023-01-22T03:16:16.782Z,11.82
2023-01-22T03:19:03.300Z,10.93
2023-01-22T03:21:30.446Z,11.38
2023-01-22T03:23:57.591Z,11.07
2023-01-22T03:26:24.786Z,11.77
2023-01-22T03:28:52.083Z,12.25
2023-01-22T03:31:19.375Z,11.52
2023-01-22T03:33:46.713Z,12.02
2023-01-22T03:36:14.666Z,10.77
2023-01-22T03:38:41.910Z,11.60
2023-01-22T03:41:11.609Z,12.68
2023-01-22T03:43:38.995Z,12.52
2023-01-22T03:46:07.341Z,12.15
2023-01-22T03:48:34.564Z,12.68
2023-01-22T03:51:08.435Z,12.18
2023-01-22T03:53:35.896Z,12.57
2023-01-22T03:56:05.152Z,11.73
2023-01-22T03:58:32.896Z,11.52
2023-01-22T04:01:04.770Z,12.43
2023-01-22T04:03:32.419Z,10.95
2023-01-22T04:06:02.964Z,12.73
2023-01-22T04:08:31.040Z,11.73
2023-01-22T04:10:58.794Z,11.77
2023-01-22T04:13:26.500Z,12.90
2023-01-22T04:15:53.990Z,13.25
2023-01-22T04:18:22.034Z,12.00
2023-01-22T04:20:49.663Z,11.88
2023-01-22T04:23:16.989Z,11.52
2023-01-22T04:25:44.830Z,12.63
2023-01-22T04:28:12.370Z,12.30
2023-01-22T04:30:39.914Z,11.60
2023-01-22T04:33:07.214Z,12.65
2023-01-22T04:35:35.641Z,13.00
2023-01-22T04:38:03.108Z,11.02
2023-01-22T04:40:30.310Z,12.30
2023-01-22T04:43:00.965Z,12.38
2023-01-22T04:45:28.138Z,11.10
2023-01-22T04:47:55.257Z,11.88
2023-01-22T04:50:23.836Z,12.13
2023-01-22T04:52:51.713Z,11.70
2023-01-22T04:55:19.118Z,11.57
2023-01-22T04:57:46.268Z,12.25
2023-01-22T05:00:13.936Z,12.32
2023-01-22T05:02:41.138Z,12.05
2023-01-22T05:05:09.357Z,12.50
2023-01-22T05:07:36.513Z,12.38
2023-01-22T05:10:03.725Z,11.77
2023-01-22T05:12:31.737Z,11.93
2023-01-22T05:14:59.278Z,11.90
2023-01-22T05:17:26.436Z,11.73
2023-01-22T05:19:53.686Z,12.70
2023-01-22T05:22:20.890Z,11.90
2023-01-22T05:24:48.015Z,12.13
2023-01-22T05:27:15.201Z,12.30
2023-01-22T05:29:42.369Z,12.27
2023-01-22T05:32:09.656Z,11.15
2023-01-22T05:34:36.812Z,11.50
2023-01-22T05:37:04.048Z,12.07
2023-01-22T05:39:31.255Z,11.25
2023-01-22T05:41:58.403Z,12.35
2023-01-22T05:44:26.397Z,11.68
2023-01-22T05:46:53.573Z,11.82
2023-01-22T05:49:20.782Z,11.30
2023-01-22T05:51:47.965Z,11.68
2023-01-22T05:54:15.130Z,11.93
2023-01-22T05:56:42.256Z,12.07
2023-01-22T05:59:09.400Z,12.30
2023-01-22T06:01:36.550Z,12.23
2023-01-22T06:04:03.680Z,12.20
2023-01-22T06:06:30.805Z,11.60
2023-01-22T06:08:58.267Z,11.27
2023-01-22T06:11:25.877Z,11.27
2023-01-22T06:13:53.016Z,11.50
2023-01-22T06:16:20.410Z,11.57
2023-01-22T06:18:47.604Z,10.73
2023-01-22T06:21:14.815Z,11.93
2023-01-22T06:23:41.970Z,11.50
2023-01-22T06:26:09.188Z,12.02
2023-01-22T06:28:36.356Z,12.50
2023-01-22T06:31:07.591Z,11.85
2023-01-22T06:33:35.561Z,11.55
2023-01-22T06:36:03.219Z,11.30
2023-01-22T06:38:30.609Z,11.88
2023-01-22T06:40:58.893Z,12.20
2023-01-22T06:43:26.572Z,11.73
2023-01-22T06:45:54.347Z,11.98
2023-01-22T06:48:21.681Z,12.40
2023-01-22T06:50:48.985Z,11.25
2023-01-22T06:53:16.186Z,10.65
2023-01-22T06:55:43.349Z,12.32
2023-01-22T06:58:10.535Z,11.20
2023-01-22T07:00:37.801Z,10.57
2023-01-22T07:03:08.680Z,12.02
2023-01-22T07:05:36.159Z,10.90
2023-01-22T07:08:03.370Z,11.38
2023-01-22T07:10:30.561Z,11.43
2023-01-22T07:13:01.622Z,10.45
2023-01-22T07:15:28.952Z,10.82
2023-01-22T07:17:56.154Z,10.38
2023-01-22T07:20:23.735Z,11.77
2023-01-22T07:22:51.533Z,12.00
2023-01-22T07:25:19.617Z,10.90
2023-01-22T07:27:46.852Z,11.00
2023-01-22T07:30:14.336Z,12.20
2023-01-22T07:32:41.562Z,10.65
2023-01-22T07:35:09.146Z,11.05
2023-01-22T07:37:36.600Z,11.65
2023-01-22T07:40:04.870Z,11.32
2023-01-22T07:42:32.105Z,10.82
2023-01-22T07:44:59.301Z,12.00
2023-01-22T07:47:26.456Z,11.93
2023-01-22T07:49:53.608Z,12.13
2023-01-22T07:52:20.749Z,11.85
2023-01-22T07:54:47.916Z,12.10
2023-01-22T07:57:16.645Z,12.50
2023-01-22T07:59:43.862Z,12.00
2023-01-22T08:02:14.672Z,11.98
2023-01-22T08:04:42.686Z,12.40
2023-01-22T08:07:19.794Z,11.52
2023-01-22T08:09:46.975Z,12.32
2023-01-22T08:12:14.167Z,12.27
2023-01-22T08:14:41.325Z,12.38
2023-01-22T08:17:08.465Z,11.43
2023-01-22T08:19:35.572Z,12.57
2023-01-22T08:22:02.829Z,12.30
2023-01-22T08:24:30.081Z,12.25
2023-01-22T08:26:57.287Z,13.05
2023-01-22T08:29:24.640Z,13.05
2023-01-22T08:31:53.220Z,13.02
2023-01-22T08:34:20.904Z,13.02
2023-01-22T08:36:48.050Z,12.30
2023-01-22T08:39:15.247Z,13.77
2023-01-22T08:41:42.571Z,12.85
2023-01-22T08:44:12.862Z,13.90
2023-01-22T08:46:40.880Z,14.23
2023-01-22T08:49:08.576Z,13.02
2023-01-22T08:51:36.094Z,12.95
2023-01-22T08:54:03.291Z,13.45
2023-01-22T08:56:30.469Z,13.35
2023-01-22T08:59:00.160Z,13.55
2023-01-22T09:01:27.752Z,13.27
2023-01-22T09:03:55.059Z,13.70
2023-01-22T09:06:23.221Z,12.70
2023-01-22T09:08:50.402Z,13.82
2023-01-22T09:11:17.562Z,12.73
2023-01-22T09:13:44.723Z,13.27
2023-01-22T09:16:12.116Z,13.50
2023-01-22T09:18:40.049Z,14.45
2023-01-22T09:21:08.441Z,13.50
2023-01-22T09:23:35.631Z,13.82
2023-01-22T09:26:02.890Z,13.93
2023-01-22T09:28:30.105Z,13.82
2023-01-22T09:30:57.355Z,13.30
2023-01-22T09:33:24.533Z,13.65
2023-01-22T09:35:51.738Z,13.75
2023-01-22T09:38:18.927Z,13.45
2023-01-22T09:40:50.625Z,14.23
2023-01-22T09:43:36.874Z,14.35
2023-01-22T09:46:08.528Z,13.60
2023-01-22T09:48:37.813Z,12.40
2023-01-22T09:51:05.448Z,13.40
2023-01-22T09:53:33.475Z,12.70
2023-01-22T09:56:00.681Z,12.35
2023-01-22T09:58:27.875Z,13.25
2023-01-22T10:01:00.420Z,13.43
2023-01-22T10:03:32.218Z,12.50
2023-01-22T10:06:02.115Z,12.70
2023-01-22T10:08:33.967Z,13.70
2023-01-22T10:11:01.215Z,12.95
2023-01-22T10:13:30.010Z,12.35
2023-01-22T10:15:57.692Z,12.48
2023-01-22T10:18:30.470Z,12.93
2023-01-22T10:20:58.924Z,12.95
2023-01-22T10:23:26.848Z,11.73
2023-01-22T10:25:56.244Z,11.73
2023-01-22T10:28:28.192Z,11.40
2023-01-22T10:30:58.843Z,12.00
2023-01-22T10:33:27.602Z,11.90
2023-01-22T10:35:56.801Z,11.10
2023-01-22T10:38:24.121Z,11.20
2023-01-22T10:41:01.897Z,11.30
2023-01-22T10:43:36.302Z,9.98
2023-01-22T10:46:13.380Z,11.45
2023-01-22T10:48:40.552Z,10.07
2023-01-22T10:51:20.304Z,9.55
2023-01-22T10:53:49.200Z,10.55
2023-01-22T10:56:25.956Z,9.02
2023-01-22T10:58:53.377Z,9.05
2023-01-22T11:01:34.013Z,9.13
2023-01-22T11:04:12.138Z,9.30
2023-01-22T11:06:45.525Z,9.50
2023-01-22T11:09:16.736Z,10.48
2023-01-22T11:11:47.162Z,9.80
2023-01-22T11:14:18.609Z,10.43
2023-01-22T11:16:48.333Z,11.55
2023-01-22T11:19:23.791Z,10.05
2023-01-22T11:21:57.165Z,9.90
2023-01-22T11:24:28.898Z,9.70
2023-01-22T11:27:19.728Z,8.85
2023-01-22T11:29:46.978Z,9.20
2023-01-22T11:32:25.893Z,9.43
2023-01-22T11:35:02.342Z,10.20
2023-01-22T11:37:46.269Z,11.18
2023-01-22T11:40:16.663Z,9.93
2023-01-22T11:42:51.472Z,10.85
2023-01-22T11:45:18.625Z,10.57
2023-01-22T11:47:54.925Z,9.57
2023-01-22T11:50:33.488Z,10.38
2023-01-22T11:53:19.308Z,9.88
2023-01-22T11:56:04.913Z,9.75
2023-01-22T11:58:45.394Z,8.77
2023-01-22T12:01:31.505Z,8.25
2023-01-22T12:04:01.743Z,9.00
2023-01-22T12:06:38.240Z,8.07
2023-01-22T12:09:22.760Z,9.98
2023-01-22T12:11:49.916Z,10.35
2023-01-22T12:14:27.155Z,9.35
2023-01-22T12:17:12.826Z,8.80
2023-01-22T12:19:40.720Z,9.30
2023-01-22T12:22:29.888Z,8.82
2023-01-22T12:25:04.525Z,10.02
2023-01-22T12:27:35.509Z,8.98
2023-01-22T12:30:24.482Z,8.07
2023-01-22T12:33:04.382Z,9.68
2023-01-22T12:35:32.870Z,9.48
2023-01-22T12:38:00.047Z,8.85
2023-01-22T12:40:30.204Z,8.82
2023-01-22T12:43:01.290Z,7.75
2023-01-22T12:45:33.771Z,9.32
2023-01-22T12:48:20.603Z,9.32
2023-01-22T12:50:54.906Z,9.23
2023-01-22T12:53:26.908Z,8.88
2023-01-22T12:56:03.347Z,8.60
2023-01-22T12:58:31.920Z,9.38
2023-01-22T13:01:02.196Z,8.63
2023-01-22T13:03:32.035Z,7.85
2023-01-22T13:06:00.559Z,7.75
2023-01-22T13:08:35.582Z,8.13
2023-01-22T13:11:04.525Z,7.82
2023-01-22T13:13:38.057Z,7.53
2023-01-22T13:16:06.819Z,7.88
2023-01-22T13:18:36.425Z,7.93
2023-01-22T13:21:05.815Z,7.22
2023-01-22T13:23:34.362Z,7.63
2023-01-22T13:26:01.858Z,8.00
2023-01-22T13:28:29.235Z,8.77
2023-01-22T13:31:05.571Z,9.70
2023-01-22T13:33:33.065Z,9.90
2023-01-22T13:36:08.532Z,8.80
2023-01-22T13:38:35.744Z,8.60
2023-01-22T13:41:08.969Z,9.82
2023-01-22T13:43:37.362Z,9.30
2023-01-22T13:46:05.781Z,9.15
2023-01-22T13:48:33.109Z,9.27
2023-01-22T13:51:02.808Z,8.90
2023-01-22T13:53:30.025Z,8.32
2023-01-22T13:55:57.687Z,8.80
2023-01-22T13:58:46.722Z,8.30
2023-01-22T14:01:35.213Z,8.88
2023-01-22T14:04:07.366Z,8.18
2023-01-22T14:06:49.537Z,8.27
2023-01-22T14:09:27.171Z,8.65
2023-01-22T14:11:54.790Z,7.88
2023-01-22T14:14:22.035Z,7.07
2023-01-22T14:16:49.233Z,8.13
2023-01-22T14:19:16.492Z,7.40
2023-01-22T14:21:43.674Z,7.55
2023-01-22T14:24:10.847Z,6.90
2023-01-22T14:26:38.039Z,7.45
2023-01-22T14:29:05.258Z,7.03
2023-01-22T14:31:32.466Z,6.95
2023-01-22T14:33:59.692Z,7.63
2023-01-22T14:36:26.894Z,8.00
2023-01-22T14:38:55.384Z,9.20
2023-01-22T14:41:22.599Z,7.53
2023-01-22T14:43:49.782Z,7.55
2023-01-22T14:46:16.922Z,8.43
2023-01-22T14:48:44.059Z,7.75
2023-01-22T14:51:11.889Z,8.65
2023-01-22T14:53:40.073Z,8.50
2023-01-22T14:56:07.392Z,7.10
2023-01-22T14:58:34.602Z,9.13
2023-01-22T15:01:01.821Z,8.15
2023-01-22T15:03:33.257Z,8.27
2023-01-22T15:06:00.438Z,8.73
2023-01-22T15:08:27.594Z,8.63
2023-01-22T15:10:54.707Z,8.63
2023-01-22T15:13:21.869Z,8.85
2023-01-22T15:15:48.985Z,9.65
2023-01-22T15:18:16.128Z,10.02
2023-01-22T15:20:43.300Z,9.50
2023-01-22T15:23:10.513Z,9.50
2023-01-22T15:25:37.656Z,9.57
2023-01-22T15:28:04.910Z,9.50
2023-01-22T15:30:32.862Z,9.63
2023-01-22T15:32:59.992Z,9.75
2023-01-22T15:35:27.229Z,9.52
2023-01-22T15:37:54.488Z,9.32
2023-01-22T15:40:21.965Z,9.48
2023-01-22T15:42:49.194Z,8.85
2023-01-22T15:45:16.348Z,8.77
2023-01-22T15:47:43.511Z,8.50
2023-01-22T15:50:10.994Z,8.77
2023-01-22T15:52:38.131Z,9.70
2023-01-22T15:55:05.544Z,9.10
2023-01-22T15:57:32.692Z,9.77
2023-01-22T15:59:59.848Z,8.68
2023-01-22T16:02:27.019Z,10.05
2023-01-22T16:04:54.457Z,9.93
2023-01-22T16:07:21.581Z,10.63
2023-01-22T16:09:48.902Z,9.73
2023-01-22T16:12:16.032Z,10.43
2023-01-22T16:14:43.368Z,10.70
2023-01-22T16:17:10.662Z,11.63
2023-01-22T16:19:38.253Z,10.70
2023-01-22T16:22:05.527Z,11.52
2023-01-22T16:24:32.861Z,11.65
2023-01-22T16:27:00.254Z,10.60
2023-01-22T16:29:27.453Z,11.50
2023-01-22T16:31:54.825Z,11.43
2023-01-22T16:34:22.415Z,11.40
2023-01-22T16:36:49.555Z,12.20
2023-01-22T16:39:21.599Z,12.63
2023-01-22T16:41:49.589Z,11.93
2023-01-22T16:44:18.052Z,11.98
2023-01-22T16:46:46.328Z,12.07
2023-01-22T16:49:16.605Z,12.40
2023-01-22T16:51:45.444Z,12.68
2023-01-22T16:54:32.905Z,12.93
2023-01-22T16:57:01.438Z,12.40
2023-01-22T16:59:28.772Z,12.75
2023-01-22T17:01:57.096Z,12.93
2023-01-22T17:04:24.269Z,12.07
2023-01-22T17:06:52.631Z,12.07
2023-01-22T17:09:21.178Z,12.27
2023-01-22T17:11:52.135Z,12.48
2023-01-22T17:14:20.798Z,12.77
2023-01-22T17:16:48.368Z,12.02
2023-01-22T17:19:15.562Z,11.32
2023-01-22T17:21:42.757Z,12.43
2023-01-22T17:24:11.617Z,12.18
2023-01-22T17:26:39.225Z,11.32
2023-01-22T17:29:09.179Z,11.70
2023-01-22T17:31:37.165Z,11.98
2023-01-22T17:34:04.617Z,12.10
2023-01-22T17:36:32.090Z,12.73
2023-01-22T17:39:01.258Z,13.63
2023-01-22T17:41:30.153Z,13.52
2023-01-22T17:43:58.798Z,13.68
2023-01-22T17:46:29.051Z,13.68
2023-01-22T17:48:56.231Z,13.77
2023-01-22T17:51:24.896Z,13.02
2023-01-22T17:53:52.715Z,13.32
2023-01-22T17:56:24.521Z,13.88
2023-01-22T17:58:54.008Z,13.93
2023-01-22T18:01:23.753Z,12.88
2023-01-22T18:03:51.350Z,13.63
2023-01-22T18:06:19.432Z,12.55
2023-01-22T18:08:46.628Z,12.15
2023-01-22T18:11:15.670Z,12.73
2023-01-22T18:13:43.359Z,13.80
2023-01-22T18:16:12.152Z,12.95
2023-01-22T18:18:39.362Z,12.95
2023-01-22T18:21:07.454Z,13.73
2023-01-22T18:23:34.660Z,15.43
2023-01-22T18:26:04.253Z,13.88
2023-01-22T18:28:31.472Z,13.95
2023-01-22T18:31:04.372Z,12.48
2023-01-22T18:33:33.364Z,13.25
2023-01-22T18:36:00.548Z,14.75
2023-01-22T18:38:28.560Z,14.82
2023-01-22T18:40:56.262Z,14.55
2023-01-22T18:43:23.456Z,14.18
2023-01-22T18:45:50.622Z,14.80
2023-01-22T18:48:17.845Z,15.32
2023-01-22T18:50:51.794Z,15.07
2023-01-22T18:53:19.197Z,14.95
2023-01-22T18:55:46.469Z,15.30
2023-01-22T18:58:27.613Z,15.90
2023-01-22T19:00:56.174Z,15.88
2023-01-22T19:03:24.172Z,15.70
2023-01-22T19:05:51.480Z,17.70
2023-01-22T19:08:19.130Z,17.70
2023-01-22T19:10:46.512Z,17.90
2023-01-22T19:13:13.956Z,18.23
2023-01-22T19:15:41.135Z,18.30
2023-01-22T19:18:09.385Z,18.40
2023-01-22T19:20:37.529Z,17.88
2023-01-22T19:23:04.988Z,17.27
2023-01-22T19:25:32.802Z,17.52
2023-01-22T19:28:00.011Z,17.42
2023-01-22T19:30:27.213Z,16.50
2023-01-22T19:32:57.573Z,18.42
2023-01-22T19:35:24.711Z,18.40
2023-01-22T19:37:52.972Z,18.50
2023-01-22T19:40:21.183Z,20.02
2023-01-22T19:42:48.737Z,20.33
2023-01-22T19:45:17.274Z,19.52
2023-01-22T19:47:44.589Z,18.23
2023-01-22T19:50:11.909Z,18.42
2023-01-22T19:52:39.081Z,18.77
2023-01-22T19:55:06.616Z,18.88
2023-01-22T19:57:33.866Z,19.42
2023-01-22T20:00:01.071Z,18.52
2023-01-22T20:02:28.710Z,18.35
2023-01-22T20:04:55.858Z,18.80
2023-01-22T20:07:25.163Z,18.70
2023-01-22T20:09:54.987Z,21.35
2023-01-22T20:12:22.346Z,19.15
2023-01-22T20:14:49.619Z,18.02
2023-01-22T20:17:17.027Z,19.20
2023-01-22T20:19:44.333Z,19.02
2023-01-22T20:22:11.544Z,18.20
2023-01-22T20:24:40.302Z,18.50
2023-01-22T20:27:07.894Z,17.42
2023-01-22T20:29:35.764Z,18.17
2023-01-22T20:32:03.653Z,19.75
2023-01-22T20:34:30.927Z,18.75
2023-01-22T20:37:01.073Z,18.45
2023-01-22T20:39:28.231Z,17.80
2023-01-22T20:41:55.547Z,17.15
2023-01-22T20:44:22.914Z,15.43
2023-01-22T20:46:50.997Z,15.05
2023-01-22T20:49:18.340Z,17.08
2023-01-22T20:51:45.553Z,17.83
2023-01-22T20:54:13.816Z,17.58
2023-01-22T20:56:41.037Z,17.88
2023-01-22T20:59:11.698Z,18.88
2023-01-22T21:01:39.134Z,18.50
2023-01-22T21:04:06.728Z,17.90
2023-01-22T21:06:35.429Z,18.15
2023-01-22T21:09:02.730Z,18.13
2023-01-22T21:11:31.176Z,17.17
2023-01-22T21:13:59.163Z,18.05
2023-01-22T21:16:27.621Z,17.30
2023-01-22T21:18:55.906Z,16.63
2023-01-22T21:21:23.362Z,17.42
2023-01-22T21:23:52.206Z,16.77
2023-01-22T21:26:22.745Z,16.90
2023-01-22T21:28:57.033Z,16.17
2023-01-22T21:31:24.659Z,16.90
2023-01-22T21:34:02.724Z,16.00
2023-01-22T21:36:31.059Z,15.77
2023-01-22T21:38:58.281Z,16.17
2023-01-22T21:41:25.613Z,15.60
2023-01-22T21:44:11.403Z,15.68
2023-01-22T21:46:39.906Z,15.63
2023-01-22T21:49:17.340Z,16.15
2023-01-22T21:51:50.677Z,15.20
2023-01-22T21:54:19.579Z,16.77
2023-01-22T21:56:46.972Z,16.30
2023-01-22T21:59:14.418Z,16.80
2023-01-22T22:01:41.658Z,15.85
2023-01-22T22:04:09.325Z,16.10
2023-01-22T22:06:37.151Z,17.35
2023-01-22T22:09:05.904Z,15.50
2023-01-22T22:11:33.345Z,15.80
2023-01-22T22:14:00.501Z,16.33
2023-01-22T22:16:27.891Z,15.05
2023-01-22T22:18:56.479Z,15.70
2023-01-22T22:21:23.754Z,16.33
2023-01-22T22:23:51.095Z,14.30
2023-01-22T22:26:18.592Z,15.73
2023-01-22T22:28:46.071Z,15.25
2023-01-22T22:31:14.886Z,14.45
2023-01-22T22:33:42.828Z,15.82
2023-01-22T22:36:10.656Z,15.95
2023-01-22T22:38:38.259Z,15.57
2023-01-22T22:41:06.727Z,14.38
2023-01-22T22:43:35.489Z,15.35
2023-01-22T22:46:06.920Z,15.40
2023-01-22T22:48:34.154Z,14.48
2023-01-22T22:51:01.625Z,15.77
2023-01-22T22:53:29.222Z,15.98
2023-01-22T22:56:03.543Z,15.50
2023-01-22T22:58:30.747Z,16.80
2023-01-22T23:00:57.962Z,18.15
2023-01-22T23:03:26.410Z,16.85
2023-01-22T23:05:53.626Z,16.27
2023-01-22T23:08:20.828Z,17.25
2023-01-22T23:10:48.011Z,16.67
2023-01-22T23:13:15.267Z,18.65
2023-01-22T23:15:42.420Z,17.83
2023-01-22T23:18:09.640Z,17.00
2023-01-22T23:20:36.839Z,19.75
2023-01-22T23:23:04.067Z,20.35
2023-01-22T23:25:31.233Z,19.70
2023-01-22T23:27:58.531Z,19.65
2023-01-22T23:30:26.929Z,22.13
2023-01-22T23:32:54.105Z,20.13
2023-01-22T23:35:21.279Z,18.55
2023-01-22T23:37:48.506Z,18.77
2023-01-22T23:40:15.672Z,17.77
2023-01-22T23:42:42.828Z,18.05
2023-01-22T23:45:11.915Z,18.48
2023-01-22T23:47:39.212Z,19.27
2023-01-22T23:50:06.628Z,17.67
2023-01-22T23:52:33.803Z,15.65
2023-01-22T23:55:01.130Z,17.08
2023-01-22T23:57:28.320Z,16.85
2023-01-22T23:59:55.429Z,17.20
